Time;durP1;ratioP1;P1;durP2;ratioP2;P2;SDS_P1;SDS_P2;PMS_P1;PMS_P2;Temp;Humidity;BMP_temperature;BMP_pressure;BME280_temperature;BME280_humidity;BME280_pressure;Samples;Min_cycle;Max_cycle;Signal;HPM_P1;HPM_P2
2021/12/28 00:01:46;;;;;;;46.47;19.53;;;;;;;-4.48;99.67;99972.63;3451376;84;99069;-85
2021/12/28 00:06:47;;;;;;;44.07;20.27;;;;;;;-4.47;99.74;99960.23;3408703;85;99013;-83
2021/12/28 00:11:47;;;;;;;45.43;20.10;;;;;;;-4.45;99.87;99960.76;3438739;84;98702;-86
2021/12/28 00:22:08;;;;;;;45.63;19.48;;;;;;;-4.43;99.92;99952.42;3442386;84;99039;-85
2021/12/28 00:27:08;;;;;;;47.60;21.30;;;;;;;-4.40;100.00;99959.88;3383915;85;99148;-85
2021/12/28 00:32:09;;;;;;;48.27;20.30;;;;;;;-4.39;100.00;99959.59;3386247;85;99238;-85
2021/12/28 00:37:10;;;;;;;50.07;21.23;;;;;;;-4.38;100.00;99958.50;3369301;85;99223;-85
2021/12/28 00:42:13;;;;;;;47.33;21.20;;;;;;;-4.35;100.00;99959.28;3335540;87;98921;-85
2021/12/28 00:47:14;;;;;;;46.93;19.57;;;;;;;-4.31;100.00;99955.46;3399544;85;99483;-85
2021/12/28 00:52:15;;;;;;;45.67;22.67;;;;;;;-4.27;100.00;99948.42;3398110;85;99175;-85
2021/12/28 00:57:16;;;;;;;47.27;21.63;;;;;;;-4.29;100.00;99943.88;3390072;85;99351;-85
2021/12/28 01:02:17;;;;;;;46.27;21.77;;;;;;;-4.27;100.00;99937.69;3386649;85;99313;-85
2021/12/28 01:07:18;;;;;;;52.17;22.57;;;;;;;-4.27;100.00;99926.38;3393983;86;99692;-85
2021/12/28 01:12:19;;;;;;;55.93;24.67;;;;;;;-4.25;100.00;99925.53;3400213;86;98779;-85
2021/12/28 01:17:20;;;;;;;53.53;22.67;;;;;;;-4.26;100.00;99914.54;3398530;86;99383;-86
2021/12/28 01:22:21;;;;;;;50.07;22.40;;;;;;;-4.25;100.00;99909.41;3411539;85;99087;-85
2021/12/28 01:27:22;;;;;;;45.60;21.30;;;;;;;-4.25;100.00;99914.00;3491363;82;99459;-85
2021/12/28 01:32:23;;;;;;;50.33;20.53;;;;;;;-4.25;100.00;99905.38;3490441;82;99212;-86
2021/12/28 01:37:24;;;;;;;53.53;22.90;;;;;;;-4.26;100.00;99901.67;3440637;84;99361;-85
2021/12/28 01:42:25;;;;;;;45.48;20.68;;;;;;;-4.24;100.00;99897.60;3392179;85;98980;-85
2021/12/28 01:47:27;;;;;;;45.07;20.33;;;;;;;-4.22;100.00;99897.28;3384950;85;99051;-85
2021/12/28 01:52:28;;;;;;;50.40;23.17;;;;;;;-4.18;100.00;99909.05;3482750;83;99158;-86
2021/12/28 01:57:29;;;;;;;47.30;19.67;;;;;;;-4.18;100.00;99907.70;3490091;83;99385;-86
2021/12/28 02:02:30;;;;;;;50.83;21.10;;;;;;;-4.18;100.00;99895.61;3488156;83;99201;-85
2021/12/28 02:07:31;;;;;;;48.80;22.13;;;;;;;-4.19;100.00;99888.13;3494432;83;99262;-85
2021/12/28 02:12:32;;;;;;;62.73;25.03;;;;;;;-4.18;100.00;99887.55;3489389;84;99199;-85
2021/12/28 02:17:35;;;;;;;55.60;24.03;;;;;;;-4.15;100.00;99893.14;3496437;84;98952;-82
2021/12/28 02:22:36;;;;;;;54.00;22.85;;;;;;;-4.12;100.00;99894.44;3494628;83;99162;-84
2021/12/28 02:27:37;;;;;;;48.27;21.70;;;;;;;-4.15;100.00;99890.45;3431754;84;99710;-84
2021/12/28 02:32:39;;;;;;;45.90;18.60;;;;;;;-4.15;100.00;99882.95;3426315;85;99962;-85
2021/12/28 02:37:40;;;;;;;49.73;22.80;;;;;;;-4.12;100.00;99877.79;3400911;85;99647;-85
2021/12/28 02:42:42;;;;;;;60.70;25.63;;;;;;;-4.09;100.00;99885.80;3391094;85;99181;-85
2021/12/28 02:47:45;;;;;;;54.03;20.47;;;;;;;-4.10;100.00;99877.50;3437138;84;98943;-85
2021/12/28 02:52:47;;;;;;;51.17;23.83;;;;;;;-4.10;100.00;99885.56;3427874;84;99040;-85
2021/12/28 02:57:58;;;;;;;55.60;23.47;;;;;;;-4.06;100.00;99882.52;3401091;85;99615;-85
2021/12/28 03:03:12;;;;;;;53.90;25.70;;;;;;;-4.08;100.00;99874.77;3430974;84;99189;-85
2021/12/28 03:08:16;;;;;;;53.23;23.57;;;;;;;-4.09;100.00;99871.03;3393441;85;99228;-85
2021/12/28 03:13:25;;;;;;;48.67;22.40;;;;;;;-4.04;100.00;99866.35;3399798;85;99804;-84
2021/12/28 03:18:26;;;;;;;52.90;23.77;;;;;;;-4.01;100.00;99861.75;3338581;87;99016;-86
2021/12/28 03:23:27;;;;;;;56.27;23.10;;;;;;;-3.99;100.00;99848.02;3398854;85;99368;-85
2021/12/28 03:28:35;;;;;;;56.67;25.40;;;;;;;-4.01;100.00;99836.75;3396200;85;99253;-85
2021/12/28 03:33:39;;;;;;;53.20;23.13;;;;;;;-4.02;100.00;99831.94;3397627;84;99356;-85
2021/12/28 03:38:40;;;;;;;55.25;23.27;;;;;;;-4.00;100.00;99823.56;3398809;85;99263;-86
2021/12/28 03:43:46;;;;;;;59.63;25.17;;;;;;;-4.01;100.00;99822.78;3350247;87;99257;-85
2021/12/28 03:48:47;;;;;;;54.30;23.65;;;;;;;-3.97;100.00;99825.67;3397695;85;99336;-85
2021/12/28 03:53:49;;;;;;;60.23;25.67;;;;;;;-3.95;100.00;99815.41;3431466;84;33708;-85
2021/12/28 03:58:51;;;;;;;51.00;24.07;;;;;;;-3.95;100.00;99816.22;3388656;85;99234;-85
2021/12/28 04:03:52;;;;;;;58.20;27.33;;;;;;;-3.97;100.00;99804.98;3398582;85;99436;-84
2021/12/28 04:08:53;;;;;;;55.13;24.70;;;;;;;-3.95;100.00;99812.72;3390102;85;99666;-84
2021/12/28 04:13:59;;;;;;;58.73;24.60;;;;;;;-3.93;100.00;99811.90;3401863;85;99646;-84
2021/12/28 04:19:04;;;;;;;51.83;23.70;;;;;;;-3.93;100.00;99807.30;3400445;85;99418;-85
2021/12/28 04:24:05;;;;;;;59.70;23.13;;;;;;;-3.91;100.00;99809.70;3398550;85;33779;-85
2021/12/28 04:29:06;;;;;;;54.07;23.33;;;;;;;-3.85;100.00;99814.69;3423298;84;99198;-86
2021/12/28 04:34:07;;;;;;;56.87;23.63;;;;;;;-3.80;100.00;99808.41;3402020;85;98978;-85
2021/12/28 04:39:08;;;;;;;54.13;23.00;;;;;;;-3.81;100.00;99802.27;3397498;85;99254;-84
2021/12/28 04:44:12;;;;;;;55.10;23.73;;;;;;;-3.80;100.00;99802.50;3432068;84;99198;-85
2021/12/28 04:49:12;;;;;;;61.00;25.40;;;;;;;-3.80;100.00;99814.59;3427605;84;99288;-84
2021/12/28 04:54:14;;;;;;;57.93;25.73;;;;;;;-3.76;100.00;99806.73;3405778;84;33297;-86
2021/12/28 04:59:17;;;;;;;56.23;21.27;;;;;;;-3.77;100.00;99791.70;3396389;85;99516;-84
2021/12/28 05:04:18;;;;;;;55.57;23.47;;;;;;;-3.76;100.00;99778.51;3401781;84;99235;-86
2021/12/28 05:09:19;;;;;;;54.00;24.07;;;;;;;-3.78;100.00;99774.77;3394067;85;99297;-85
2021/12/28 05:14:20;;;;;;;54.63;22.47;;;;;;;-3.77;100.00;99754.07;3434167;84;99155;-85
2021/12/28 05:19:21;;;;;;;51.30;22.60;;;;;;;-3.76;100.00;99742.22;3385165;85;99255;-85
2021/12/28 05:24:22;;;;;;;61.87;24.70;;;;;;;-3.77;100.00;99740.63;3407511;85;32815;-84
2021/12/28 05:29:23;;;;;;;55.87;24.13;;;;;;;-3.76;100.00;99757.00;3445084;84;99488;-85
2021/12/28 05:34:24;;;;;;;54.97;23.70;;;;;;;-3.72;100.00;99769.53;3447096;84;99359;-85
2021/12/28 05:39:25;;;;;;;64.82;27.25;;;;;;;-3.66;100.00;99769.68;3444174;84;99228;-85
2021/12/28 05:44:26;;;;;;;59.93;24.90;;;;;;;-3.66;100.00;99763.52;3440974;83;99569;-85
2021/12/28 05:49:27;;;;;;;52.17;22.62;;;;;;;-3.63;100.00;99763.72;3447322;84;99154;-85
2021/12/28 05:54:28;;;;;;;60.57;23.33;;;;;;;-3.62;100.00;99753.73;3449689;84;26531;-85
2021/12/28 05:59:29;;;;;;;59.60;23.03;;;;;;;-3.65;100.00;99743.03;3438514;83;99176;-85
2021/12/28 06:04:30;;;;;;;58.13;25.77;;;;;;;-3.68;100.00;99740.97;3399361;85;99088;-85
2021/12/28 06:09:31;;;;;;;53.43;24.63;;;;;;;-3.67;100.00;99730.45;3478813;83;99364;-84
2021/12/28 06:14:34;;;;;;;58.43;24.10;;;;;;;-3.65;100.00;99734.97;3490442;83;99664;-84
2021/12/28 06:19:34;;;;;;;56.57;25.53;;;;;;;-3.67;100.00;99729.67;3484597;83;99269;-84
2021/12/28 06:24:35;;;;;;;53.63;23.03;;;;;;;-3.68;100.00;99726.71;3453505;84;31736;-84
2021/12/28 06:29:36;;;;;;;53.83;23.57;;;;;;;-3.67;100.00;99712.98;3411843;84;99505;-84
2021/12/28 06:34:37;;;;;;;49.53;21.40;;;;;;;-3.72;100.00;99707.70;3365815;86;99071;-85
2021/12/28 06:39:38;;;;;;;53.10;22.93;;;;;;;-3.68;100.00;99710.58;3407465;84;99701;-84
2021/12/28 06:44:42;;;;;;;56.70;24.97;;;;;;;-3.70;100.00;99709.56;3339545;86;99618;-83
2021/12/28 06:49:41;;;;;;;56.33;23.37;;;;;;;-3.71;100.00;99709.29;3410547;84;99870;-84
2021/12/28 06:54:44;;;;;;;49.73;21.70;;;;;;;-3.72;100.00;99703.67;3423495;85;27831;-84
2021/12/28 06:59:45;;;;;;;56.73;25.17;;;;;;;-3.75;100.00;99698.11;3398905;85;99273;-84
2021/12/28 07:04:47;;;;;;;53.10;23.87;;;;;;;-3.74;100.00;99688.41;3421942;84;99128;-84
2021/12/28 07:09:48;;;;;;;64.17;26.85;;;;;;;-3.76;100.00;99691.14;3407677;84;99211;-84
2021/12/28 07:14:48;;;;;;;53.20;23.83;;;;;;;-3.78;100.00;99680.69;3420711;85;99219;-84
2021/12/28 07:19:49;;;;;;;53.80;23.30;;;;;;;-3.77;100.00;99690.91;3390286;84;99447;-84
2021/12/28 07:24:50;;;;;;;59.43;25.97;;;;;;;-3.77;100.00;99682.84;3441341;85;99305;-83
2021/12/28 07:29:51;;;;;;;59.13;26.52;;;;;;;-3.76;100.00;99673.67;3451677;83;99272;-84
2021/12/28 07:34:52;;;;;;;55.93;24.60;;;;;;;-3.78;100.00;99675.88;3438103;83;99254;-83
2021/12/28 07:39:53;;;;;;;61.33;24.80;;;;;;;-3.79;100.00;99675.06;3463071;83;99308;-84
2021/12/28 07:44:54;;;;;;;52.23;23.00;;;;;;;-3.75;100.00;99657.78;3447535;83;99580;-84
2021/12/28 07:49:55;;;;;;;44.00;18.33;;;;;;;-3.78;100.00;99630.95;3455135;83;99532;-84
2021/12/28 07:54:55;;;;;;;55.47;23.27;;;;;;;-3.74;100.00;99644.05;3462269;83;99335;-83
2021/12/28 07:59:57;;;;;;;55.93;24.53;;;;;;;-3.75;100.00;99638.43;3452455;83;99098;-83
2021/12/28 08:04:58;;;;;;;48.67;20.87;;;;;;;-3.75;100.00;99634.94;3455322;83;99116;-84
2021/12/28 08:09:59;;;;;;;47.73;21.87;;;;;;;-3.70;100.00;99641.55;3462321;83;99335;-85
2021/12/28 08:15:02;;;;;;;52.20;21.80;;;;;;;-3.64;100.00;99645.17;3461281;84;99379;-84
2021/12/28 08:20:06;;;;;;;61.17;24.80;;;;;;;-3.56;100.00;99657.11;3464519;84;99279;-84
2021/12/28 08:25:11;;;;;;;54.43;25.10;;;;;;;-3.54;100.00;99653.02;3469949;84;99529;-84
2021/12/28 08:30:14;;;;;;;50.90;24.17;;;;;;;-3.54;100.00;99659.73;3454193;83;99045;-83
2021/12/28 08:35:17;;;;;;;57.78;24.98;;;;;;;-3.49;100.00;99649.41;3466147;84;99131;-84
2021/12/28 08:40:20;;;;;;;53.42;23.02;;;;;;;-3.44;100.00;99666.78;3459743;83;99422;-83
2021/12/28 08:45:21;;;;;;;59.27;27.07;;;;;;;-3.39;100.00;99688.95;3466299;84;99249;-84
2021/12/28 08:50:23;;;;;;;56.40;25.37;;;;;;;-3.33;100.00;99676.98;3457391;84;99291;-85
2021/12/28 08:55:24;;;;;;;66.47;29.27;;;;;;;-3.29;100.00;99663.17;3457248;83;99301;-84
2021/12/28 09:00:29;;;;;;;68.27;29.03;;;;;;;-3.25;100.00;99666.86;3462895;84;99269;-84
2021/12/28 09:05:30;;;;;;;59.47;26.10;;;;;;;-3.17;100.00;99674.19;3466797;83;99529;-83
2021/12/28 09:10:32;;;;;;;59.73;26.80;;;;;;;-3.14;100.00;99670.09;3462081;83;99603;-83
2021/12/28 09:15:36;;;;;;;63.08;26.15;;;;;;;-3.10;100.00;99657.09;3463533;83;99724;-84
2021/12/28 09:20:37;;;;;;;55.30;26.00;;;;;;;-3.06;100.00;99649.19;3440471;83;99265;-84
2021/12/28 09:25:39;;;;;;;55.80;25.53;;;;;;;-3.00;100.00;99631.81;3432566;84;99206;-85
2021/12/28 09:30:43;;;;;;;56.27;26.67;;;;;;;-2.92;100.00;99626.48;3453442;83;99172;-85
2021/12/28 09:35:45;;;;;;;61.23;27.87;;;;;;;-2.85;100.00;99613.37;3424327;85;98863;-82
2021/12/28 09:40:48;;;;;;;54.50;24.57;;;;;;;-2.79;100.00;99601.94;3410942;85;99220;-83
2021/12/28 09:45:49;;;;;;;59.27;26.63;;;;;;;-2.76;100.00;99598.07;3418796;85;99754;-83
2021/12/28 09:50:50;;;;;;;54.57;23.90;;;;;;;-2.70;100.00;99589.29;3460461;84;99509;-84
2021/12/28 09:55:51;;;;;;;64.40;28.97;;;;;;;-2.58;100.00;99584.91;3410377;84;99219;-85
2021/12/28 10:00:52;;;;;;;63.13;27.63;;;;;;;-2.51;100.00;99574.47;3405472;85;99104;-84
2021/12/28 10:05:53;;;;;;;64.30;25.57;;;;;;;-2.35;99.84;99575.63;3467770;84;34933;-85
2021/12/28 10:10:57;;;;;;;55.27;25.60;;;;;;;-2.27;99.55;99559.25;3445610;84;98926;-85
2021/12/28 10:15:58;;;;;;;57.97;26.50;;;;;;;-2.17;99.60;99560.31;3453455;84;99089;-84
2021/12/28 10:21:02;;;;;;;54.27;26.63;;;;;;;-2.18;98.88;99545.26;3453000;83;99432;-84
2021/12/28 10:26:07;;;;;;;58.90;29.17;;;;;;;-2.13;98.80;99539.14;3415630;84;99456;-85
2021/12/28 10:31:18;;;;;;;67.57;28.00;;;;;;;-2.14;98.68;99536.79;3449921;83;99448;-85
2021/12/28 10:36:19;;;;;;;56.80;25.43;;;;;;;-2.14;98.38;99530.05;3459630;84;27025;-84
2021/12/28 10:41:23;;;;;;;53.90;24.93;;;;;;;-2.14;98.54;99529.48;3449470;83;99316;-85
2021/12/28 10:46:27;;;;;;;58.83;26.13;;;;;;;-2.13;98.35;99521.63;3451675;83;98956;-84
2021/12/28 10:51:35;;;;;;;53.93;24.43;;;;;;;-2.10;98.29;99518.31;3457066;83;99277;-85
2021/12/28 10:56:57;;;;;;;60.23;25.80;;;;;;;-2.07;98.26;99500.14;3462670;84;99039;-85
2021/12/28 11:01:59;;;;;;;57.67;24.90;;;;;;;-2.05;98.13;99494.45;3409612;83;99158;-84
2021/12/28 11:07:06;;;;;;;65.27;28.23;;;;;;;-1.99;98.37;99506.11;3466337;83;99094;-84
2021/12/28 11:12:08;;;;;;;64.10;29.10;;;;;;;-1.99;97.96;99498.56;3456904;84;98985;-85
2021/12/28 11:17:12;;;;;;;63.97;29.80;;;;;;;-1.96;98.02;99485.81;3422733;85;99231;-85
2021/12/28 11:22:14;;;;;;;58.10;28.67;;;;;;;-1.95;97.86;99465.83;3414873;85;98970;-86
2021/12/28 11:27:30;;;;;;;60.10;27.90;;;;;;;-1.94;97.83;99457.43;3438536;84;99063;-86
2021/12/28 11:32:31;;;;;;;50.03;22.02;;;;;;;-1.93;97.70;99448.77;3454976;83;99110;-86
2021/12/28 11:37:34;;;;;;;63.00;28.47;;;;;;;-1.90;97.52;99450.84;3449552;83;99095;-87
2021/12/28 11:42:37;;;;;;;60.87;29.53;;;;;;;-1.89;97.52;99434.36;3414777;84;98768;-86
2021/12/28 11:47:38;;;;;;;56.90;24.47;;;;;;;-1.85;97.55;99421.83;3412790;85;98687;-86
2021/12/28 11:52:41;;;;;;;63.57;28.87;;;;;;;-1.82;97.58;99415.78;3420962;85;99455;-87
2021/12/28 11:57:52;;;;;;;56.60;26.00;;;;;;;-1.77;97.49;99421.55;3415591;85;99944;-88
2021/12/28 12:02:54;;;;;;;62.33;28.43;;;;;;;-1.65;97.67;99412.27;3459786;83;98587;-87
2021/12/28 12:08:16;;;;;;;65.27;28.73;;;;;;;-1.54;97.35;99393.27;3450345;83;99080;-83
2021/12/28 12:13:27;;;;;;;67.13;31.20;;;;;;;-1.50;97.17;99390.95;3449121;84;98957;-87
2021/12/28 12:18:32;;;;;;;66.85;27.32;;;;;;;-1.48;96.75;99378.49;3464295;83;98805;-86
2021/12/28 12:23:47;;;;;;;65.83;30.55;;;;;;;-1.52;96.68;99368.91;3459026;84;99063;-87
2021/12/28 12:28:55;;;;;;;60.13;28.97;;;;;;;-1.51;97.06;99359.70;3453129;83;99602;-85
2021/12/28 12:33:58;;;;;;;58.00;27.97;;;;;;;-1.52;96.66;99350.02;3434383;84;99500;-87
2021/12/28 12:39:00;;;;;;;65.30;29.50;;;;;;;-1.50;96.91;99343.73;3422570;84;99508;-85
2021/12/28 12:44:09;;;;;;;64.13;28.97;;;;;;;-1.45;96.93;99346.80;3437065;84;98985;-87
2021/12/28 12:49:28;;;;;;;67.20;30.43;;;;;;;-1.46;96.88;99354.13;3391322;85;99386;-88
2021/12/28 12:54:40;;;;;;;69.70;32.50;;;;;;;-1.38;97.12;99359.25;3390129;85;25958;-87
2021/12/28 12:59:46;;;;;;;69.77;32.05;;;;;;;-1.34;97.15;99362.86;3383691;85;98633;-87
2021/12/28 13:04:54;;;;;;;54.18;23.55;;;;;;;-1.30;97.27;99363.80;3382486;85;98884;-89
2021/12/28 13:10:06;;;;;;;69.07;33.97;;;;;;;-1.25;97.37;99369.83;3389760;85;98948;-88
2021/12/28 13:15:10;;;;;;;76.30;34.53;;;;;;;-1.22;97.27;99367.81;3394588;85;99395;-87
2021/12/28 13:20:15;;;;;;;78.47;36.77;;;;;;;-1.27;97.12;99359.13;3398650;85;99068;-87
2021/12/28 13:25:25;;;;;;;71.00;31.63;;;;;;;-1.29;97.23;99368.88;3399859;85;99005;-88
2021/12/28 13:30:31;;;;;;;74.42;35.68;;;;;;;-1.30;97.22;99367.85;3437318;84;98812;-87
2021/12/28 13:35:41;;;;;;;65.22;30.17;;;;;;;-1.31;97.18;99362.23;3509285;82;98711;-88
2021/12/28 13:40:53;;;;;;;70.93;34.63;;;;;;;-1.35;97.31;99343.75;3500572;82;99253;-88
2021/12/28 13:45:58;;;;;;;77.78;34.67;;;;;;;-1.36;97.39;99327.33;3512374;82;98854;-88
2021/12/28 13:51:03;;;;;;;67.20;31.02;;;;;;;-1.35;97.49;99314.06;3504503;82;98849;-88
2021/12/28 13:56:15;;;;;;;64.33;29.80;;;;;;;-1.35;97.58;99311.37;3513895;82;99326;-88
2021/12/28 14:01:20;;;;;;;68.23;31.10;;;;;;;-1.34;97.64;99319.14;3505370;82;99372;-87
2021/12/28 14:06:22;;;;;;;73.57;34.20;;;;;;;-1.33;97.71;99311.27;3507455;82;25864;-87
2021/12/28 14:11:34;;;;;;;62.95;30.50;;;;;;;-1.31;97.70;99302.86;3500582;82;99129;-88
2021/12/28 14:16:55;;;;;;;68.40;30.33;;;;;;;-1.33;97.71;99296.98;3503505;83;99074;-88
2021/12/28 14:21:58;;;;;;;71.97;33.37;;;;;;;-1.35;97.95;99287.88;3501717;82;98979;-87
2021/12/28 14:26:59;;;;;;;65.83;32.13;;;;;;;-1.32;97.96;99277.77;3496893;83;99419;-88
2021/12/28 14:32:12;;;;;;;69.55;30.65;;;;;;;-1.31;98.10;99271.83;3509140;82;98911;-87
2021/12/28 14:37:22;;;;;;;73.60;31.77;;;;;;;-1.31;98.14;99267.78;3512674;82;98999;-88
2021/12/28 14:42:30;;;;;;;69.87;32.07;;;;;;;-1.29;98.21;99261.48;3510922;82;98375;-88
2021/12/28 14:47:36;;;;;;;69.30;31.57;;;;;;;-1.30;98.34;99262.61;3522929;82;99305;-89
2021/12/28 14:52:42;;;;;;;70.70;34.47;;;;;;;-1.27;98.46;99261.97;3513985;82;99289;-88
2021/12/28 14:57:49;;;;;;;;;;;;;;;-1.27;98.56;99257.34;3501568;82;99337;-88
2021/12/28 15:03:01;;;;;;;71.10;31.62;;;;;;;-1.26;98.75;99251.40;3505375;82;84530;-86
2021/12/28 15:08:08;;;;;;;61.93;30.70;;;;;;;-1.25;98.88;99270.52;3506711;82;99052;-86
2021/12/28 15:13:13;;;;;;;70.80;30.47;;;;;;;-1.22;99.05;99265.83;3527676;82;99229;-86
2021/12/28 15:18:19;;;;;;;66.67;30.27;;;;;;;-1.18;99.07;99272.93;3516520;82;98596;-88
2021/12/28 15:23:20;;;;;;;73.90;33.73;;;;;;;-1.15;99.19;99280.94;3517576;82;98668;-87
2021/12/28 15:28:21;;;;;;;66.30;30.30;;;;;;;-1.12;99.28;99278.36;3510901;82;99287;-87
2021/12/28 15:33:24;;;;;;;65.30;30.47;;;;;;;-1.12;99.33;99266.22;3523146;82;99274;-86
2021/12/28 15:38:25;;;;;;;67.47;31.20;;;;;;;-1.11;99.36;99267.80;3509790;82;99241;-86
2021/12/28 15:43:25;;;;;;;67.35;30.23;;;;;;;-1.09;99.48;99266.89;3517807;82;98913;-85
2021/12/28 15:48:27;;;;;;;70.83;31.90;;;;;;;-1.07;99.47;99257.13;3515691;82;98871;-87
2021/12/28 15:53:28;;;;;;;59.53;28.23;;;;;;;-1.09;99.47;99243.18;3526558;82;98786;-86
2021/12/28 15:58:29;;;;;;;66.57;30.63;;;;;;;-1.09;99.63;99245.87;3520130;82;99047;-87
2021/12/28 16:03:31;;;;;;;71.30;31.93;;;;;;;-1.09;99.62;99247.23;3515321;82;99163;-87
2021/12/28 16:08:33;;;;;;;66.53;31.43;;;;;;;-1.10;99.59;99232.16;3516954;82;98866;-87
2021/12/28 16:13:35;;;;;;;64.57;30.67;;;;;;;-1.15;99.51;99236.40;3505087;82;98836;-87
2021/12/28 16:18:36;;;;;;;65.23;28.53;;;;;;;-1.17;99.44;99233.22;3514826;82;99026;-87
2021/12/28 16:23:37;;;;;;;61.10;28.80;;;;;;;-1.20;99.39;99220.39;3516362;82;98718;-89
2021/12/28 16:28:38;;;;;;;67.30;31.37;;;;;;;-1.26;99.33;99213.62;3519918;82;98848;-88
2021/12/28 16:33:42;;;;;;;69.00;31.03;;;;;;;-1.31;99.27;99210.53;3481189;82;98930;-86
2021/12/28 16:38:46;;;;;;;67.13;30.30;;;;;;;-1.36;99.25;99218.05;3473147;83;98946;-87
2021/12/28 16:43:48;;;;;;;62.50;28.23;;;;;;;-1.39;99.16;99209.24;3483414;83;98942;-85
2021/12/28 16:48:48;;;;;;;69.60;32.90;;;;;;;-1.45;99.02;99208.66;3476046;83;98933;-86
2021/12/28 16:53:49;;;;;;;74.43;32.97;;;;;;;-1.49;98.89;99217.74;3488314;83;35812;-86
2021/12/28 16:58:54;;;;;;;59.93;28.27;;;;;;;-1.55;98.76;99200.14;3473232;83;99149;-86
2021/12/28 17:03:55;;;;;;;64.77;30.53;;;;;;;-1.61;98.75;99201.45;3479947;83;98314;-87
2021/12/28 17:08:56;;;;;;;66.57;28.65;;;;;;;-1.68;98.82;99207.38;3483636;83;99147;-88
2021/12/28 17:13:57;;;;;;;86.10;38.40;;;;;;;-1.72;98.80;99202.95;3484931;83;99119;-86
2021/12/28 17:18:58;;;;;;;60.45;29.37;;;;;;;-1.74;98.70;99203.29;3470994;83;99801;-88
2021/12/28 17:23:59;;;;;;;70.80;33.90;;;;;;;-1.81;98.68;99196.25;3481697;83;34915;-87
2021/12/28 17:29:00;;;;;;;62.17;30.00;;;;;;;-1.87;98.79;99198.91;3483549;83;99227;-87
2021/12/28 17:34:01;;;;;;;68.80;30.70;;;;;;;-1.90;98.83;99194.17;3470110;84;99014;-87
2021/12/28 17:39:05;;;;;;;66.65;30.50;;;;;;;-1.91;98.83;99178.32;3467910;83;99113;-86
2021/12/28 17:44:08;;;;;;;66.80;30.60;;;;;;;-1.99;98.77;99173.74;3480110;83;99357;-87
2021/12/28 17:49:09;;;;;;;63.30;29.15;;;;;;;-2.03;98.82;99161.48;3463600;82;99106;-87
2021/12/28 17:54:11;;;;;;;67.63;31.93;;;;;;;-2.07;98.91;99167.86;3474260;84;44004;-87
2021/12/28 17:59:12;;;;;;;65.97;31.90;;;;;;;-2.08;98.91;99157.62;3467806;83;98838;-87
2021/12/28 18:04:13;;;;;;;61.03;28.13;;;;;;;-2.12;98.92;99143.78;3472707;84;98849;-88
2021/12/28 18:09:14;;;;;;;65.08;31.02;;;;;;;-2.17;99.03;99154.19;3476554;83;99015;-87
2021/12/28 18:14:15;;;;;;;68.37;30.90;;;;;;;-2.20;99.13;99134.62;3484268;82;99032;-86
2021/12/28 18:19:17;;;;;;;69.90;31.73;;;;;;;-2.22;99.16;99134.70;3479815;83;98997;-86
2021/12/28 18:24:18;;;;;;;69.30;32.60;;;;;;;-2.25;99.19;99128.64;3475269;84;34898;-87
2021/12/28 18:29:35;;;;;;;63.77;31.53;;;;;;;-2.27;99.46;99128.16;3473168;84;99174;-87
2021/12/28 18:34:37;;;;;;;58.50;26.90;;;;;;;-2.27;99.61;99134.89;3515622;82;98861;-88
2021/12/28 18:39:40;;;;;;;62.30;25.90;;;;;;;-2.27;99.66;99130.30;3503571;82;99191;-86
2021/12/28 18:44:42;;;;;;;59.30;26.97;;;;;;;-2.24;99.86;99137.72;3522215;82;99104;-87
2021/12/28 18:49:43;;;;;;;67.73;30.90;;;;;;;-2.22;99.89;99139.55;3522053;82;99123;-87
2021/12/28 18:54:44;;;;;;;63.10;28.93;;;;;;;-2.21;100.00;99126.85;3528042;82;35375;-87
2021/12/28 18:59:45;;;;;;;71.67;32.70;;;;;;;-2.18;100.00;99116.78;3515455;82;98942;-86
2021/12/28 19:04:45;;;;;;;77.87;35.00;;;;;;;-2.15;100.00;99120.97;3524802;82;99107;-86
2021/12/28 19:09:50;;;;;;;73.47;34.03;;;;;;;-2.13;100.00;99127.38;3521004;82;99614;-86
2021/12/28 19:14:50;;;;;;;64.20;31.37;;;;;;;-2.14;100.00;99127.92;3518394;82;99677;-87
2021/12/28 19:19:54;;;;;;;74.17;34.17;;;;;;;-2.16;100.00;99099.72;3499370;82;99718;-88
2021/12/28 19:24:55;;;;;;;65.43;32.33;;;;;;;-2.27;100.00;99093.93;3515349;82;99352;-86
2021/12/28 19:29:57;;;;;;;72.40;34.00;;;;;;;-2.19;100.00;99100.39;3510874;82;99222;-86
2021/12/28 19:34:57;;;;;;;71.87;33.27;;;;;;;-2.20;100.00;99109.02;3494062;83;99191;-87
2021/12/28 19:39:58;;;;;;;65.73;31.90;;;;;;;-2.19;100.00;99095.77;3471319;83;99542;-87
2021/12/28 19:45:00;;;;;;;85.92;42.40;;;;;;;-2.18;100.00;99101.39;3479119;83;99662;-88
2021/12/28 19:50:01;;;;;;;92.80;43.80;;;;;;;-2.20;100.00;99100.94;3460214;84;99190;-87
2021/12/28 19:55:07;;;;;;;88.87;39.77;;;;;;;-2.20;100.00;99086.69;3478026;83;99649;-86
2021/12/28 20:00:15;;;;;;;90.87;41.65;;;;;;;-2.19;100.00;99089.61;3489704;83;99264;-88
2021/12/28 20:05:18;;;;;;;90.77;42.37;;;;;;;-2.17;100.00;99088.72;3486977;83;99058;-87
2021/12/28 20:10:22;;;;;;;115.73;49.87;;;;;;;-2.17;100.00;99062.58;3482420;83;99145;-86
2021/12/28 20:15:30;;;;;;;78.97;37.13;;;;;;;-2.15;100.00;99066.27;3474541;84;99385;-87
2021/12/28 20:20:32;;;;;;;86.00;37.60;;;;;;;-2.15;100.00;99062.23;3484552;83;99278;-87
2021/12/28 20:25:34;;;;;;;89.57;40.70;;;;;;;-2.14;100.00;99051.70;3486586;83;99550;-87
2021/12/28 20:30:35;;;;;;;78.77;37.97;;;;;;;-2.15;100.00;99048.20;3488386;84;99278;-87
2021/12/28 20:35:36;;;;;;;83.23;36.27;;;;;;;-2.13;100.00;99042.50;3523351;82;99483;-87
2021/12/28 20:40:37;;;;;;;77.17;36.37;;;;;;;-2.11;100.00;99037.55;3515487;82;99005;-86
2021/12/28 20:45:39;;;;;;;81.83;39.33;;;;;;;-2.09;100.00;99040.73;3525875;82;99644;-85
2021/12/28 20:50:49;;;;;;;78.60;35.17;;;;;;;-2.09;100.00;99052.86;3518589;82;99439;-86
2021/12/28 20:55:50;;;;;;;77.17;36.77;;;;;;;-2.06;100.00;99058.92;3499936;82;99243;-87
2021/12/28 21:00:51;;;;;;;80.32;35.28;;;;;;;-2.07;100.00;99043.88;3505021;82;99586;-86
2021/12/28 21:05:57;;;;;;;72.63;33.57;;;;;;;-2.07;100.00;99047.34;3533989;82;35389;-85
2021/12/28 21:11:00;;;;;;;81.53;36.97;;;;;;;-2.04;100.00;99035.13;3516955;82;99556;-86
2021/12/28 21:16:02;;;;;;;74.40;34.37;;;;;;;-2.05;100.00;99042.98;3525702;82;99546;-87
2021/12/28 21:21:07;;;;;;;72.80;34.77;;;;;;;-2.02;100.00;99039.06;3517201;82;99374;-87
2021/12/28 21:26:11;;;;;;;71.57;35.43;;;;;;;-2.02;100.00;99040.99;3521175;82;99921;-88
2021/12/28 21:31:11;;;;;;;72.60;34.53;;;;;;;-2.00;100.00;99038.75;3498735;82;99328;-87
2021/12/28 21:36:14;;;;;;;69.13;31.70;;;;;;;-1.98;100.00;99038.66;3526685;82;34877;-88
2021/12/28 21:41:14;;;;;;;71.67;35.30;;;;;;;-1.97;100.00;99040.80;3514580;82;99625;-88
2021/12/28 21:46:19;;;;;;;71.83;33.70;;;;;;;-1.95;100.00;99038.55;3505959;82;98997;-87
2021/12/28 21:51:20;;;;;;;79.20;36.05;;;;;;;-1.92;100.00;99055.44;3510216;82;99415;-87
2021/12/28 21:56:23;;;;;;;71.33;35.50;;;;;;;-1.91;100.00;99053.73;3519176;82;99631;-88
2021/12/28 22:01:27;;;;;;;76.15;36.98;;;;;;;-1.88;100.00;99057.68;3523684;82;99628;-88
2021/12/28 22:06:27;;;;;;;80.33;38.13;;;;;;;-1.83;100.00;99060.98;3522652;82;26396;-87
2021/12/28 22:11:30;;;;;;;73.23;34.97;;;;;;;-1.80;100.00;99063.02;3495420;82;99025;-87
2021/12/28 22:16:34;;;;;;;77.50;36.73;;;;;;;-1.74;100.00;99059.02;3502232;82;99012;-88
2021/12/28 22:21:35;;;;;;;73.07;36.00;;;;;;;-1.70;100.00;99062.63;3501165;82;99228;-87
2021/12/28 22:26:36;;;;;;;80.57;38.13;;;;;;;-1.69;100.00;99051.28;3529751;82;99195;-85
2021/12/28 22:31:37;;;;;;;72.47;34.23;;;;;;;-1.66;100.00;99047.36;3521853;82;99195;-87
2021/12/28 22:36:38;;;;;;;83.43;39.07;;;;;;;-1.59;100.00;99054.94;3504556;82;36026;-86
2021/12/28 22:41:41;;;;;;;79.73;35.53;;;;;;;-1.57;100.00;99050.80;3492201;82;98941;-86
2021/12/28 22:46:42;;;;;;;78.93;35.37;;;;;;;-1.51;100.00;99044.62;3504400;83;99589;-86
2021/12/28 22:51:45;;;;;;;68.40;32.33;;;;;;;-1.52;100.00;99032.25;3490109;82;99276;-86
2021/12/28 22:56:49;;;;;;;80.07;37.63;;;;;;;-1.49;100.00;99039.70;3442759;84;99343;-86
2021/12/28 23:01:50;;;;;;;77.30;35.00;;;;;;;-1.47;100.00;99031.50;3507192;82;99213;-86
2021/12/28 23:06:51;;;;;;;74.00;32.27;;;;;;;-1.43;100.00;99034.33;3508116;82;99267;-84